ACA007 KSJC-CYVR
Flight info
| Callsign | ACA007 |
|---|---|
| Flight time | 0h 51m |
| Altitude | 34000 |
| Route | LOUPE1 HRNER DCT RBL DCT BTG J1 SEA DCT IMPOR DCT YVR |
| Aircraft | A320/M-SDE3FGHIRWY/LB1 |
Departure
| Time | 2026-05-05 05:07 |
|---|---|
| Airport | Norman Y. Mineta San Jose International Airport (KSJC) |
Arrival
| Time | 2026-05-05 05:59 |
|---|---|
| Airport | Vancouver International Airport (CYVR) |
| Time | Latitude | Longitude | Altitude | Speed | Heading |
|---|---|---|---|---|---|
| 2026-05-05 04:42 | 37.36497 | -121.92527 | 52 ft | 0 kts | 48° |
| 2026-05-05 04:55 | 37.36492 | -121.92534 | 53 ft | 8 kts | 50° |
| 2026-05-05 04:56 | 37.36475 | -121.92561 | 46 ft | 5 kts | 50° |
| 2026-05-05 04:56 | 37.36461 | -121.92583 | 46 ft | 5 kts | 60° |
| 2026-05-05 04:56 | 37.36455 | -121.92611 | 49 ft | 5 kts | 113° |
| 2026-05-05 04:56 | 37.36471 | -121.92635 | 47 ft | 8 kts | 144° |
| 2026-05-05 04:57 | 37.36486 | -121.92649 | 53 ft | 1 kts | 139° |
| 2026-05-05 04:58 | 37.36485 | -121.92648 | 53 ft | 2 kts | 139° |
| 2026-05-05 04:58 | 37.36462 | -121.92623 | 49 ft | 4 kts | 140° |
| 2026-05-05 04:59 | 37.36448 | -121.92609 | 51 ft | 2 kts | 140° |
| 2026-05-05 04:59 | 37.36396 | -121.92552 | 52 ft | 18 kts | 139° |
| 2026-05-05 04:59 | 37.36304 | -121.92450 | 53 ft | 16 kts | 139° |
| 2026-05-05 04:59 | 37.36223 | -121.92361 | 52 ft | 18 kts | 139° |
| 2026-05-05 05:00 | 37.36068 | -121.92190 | 55 ft | 34 kts | 140° |
| 2026-05-05 05:00 | 37.35896 | -121.92002 | 58 ft | 31 kts | 139° |
| 2026-05-05 05:00 | 37.35738 | -121.91832 | 57 ft | 29 kts | 139° |
| 2026-05-05 05:00 | 37.35589 | -121.91665 | 64 ft | 28 kts | 138° |
| 2026-05-05 05:01 | 37.35442 | -121.91508 | 58 ft | 24 kts | 145° |
| 2026-05-05 05:01 | 37.35370 | -121.91530 | 55 ft | 8 kts | 230° |
| 2026-05-05 05:01 | 37.35366 | -121.91536 | 56 ft | 0 kts | 230° |
| 2026-05-05 05:01 | 37.35377 | -121.91519 | 60 ft | 7 kts | 232° |
| 2026-05-05 05:02 | 37.35415 | -121.91467 | 58 ft | 4 kts | 230° |
| 2026-05-05 05:02 | 37.35417 | -121.91465 | 58 ft | 0 kts | 230° |
| 2026-05-05 05:02 | 37.35415 | -121.91465 | 58 ft | 1 kts | 217° |
| 2026-05-05 05:03 | 37.35398 | -121.91456 | 57 ft | 2 kts | 159° |
| 2026-05-05 05:03 | 37.35392 | -121.91453 | 77 ft | 0 kts | 155° |
| 2026-05-05 05:03 | 37.35390 | -121.91452 | 77 ft | 2 kts | 154° |
| 2026-05-05 05:03 | 37.35342 | -121.91422 | 58 ft | 9 kts | 178° |
| 2026-05-05 05:04 | 37.35296 | -121.91461 | 60 ft | 3 kts | 232° |
| 2026-05-05 05:04 | 37.35294 | -121.91465 | 60 ft | 0 kts | 232° |
| 2026-05-05 05:06 | 37.35284 | -121.91482 | 59 ft | 7 kts | 235° |
| 2026-05-05 05:06 | 37.35265 | -121.91542 | 61 ft | 6 kts | 263° |
| 2026-05-05 05:06 | 37.35290 | -121.91600 | 62 ft | 19 kts | 315° |
| 2026-05-05 05:07 | 37.35572 | -121.91909 | 59 ft | 87 kts | 319° |
| 2026-05-05 05:07 | 37.36181 | -121.92574 | 50 ft | 142 kts | 319° |
| 2026-05-05 05:07 | 37.37015 | -121.93479 | 235 ft | 163 kts | 319° |
| 2026-05-05 05:07 | 37.37847 | -121.94392 | 977 ft | 152 kts | 319° |
| 2026-05-05 05:08 | 37.38636 | -121.95257 | 1369 ft | 157 kts | 319° |
| 2026-05-05 05:08 | 37.39512 | -121.96216 | 1496 ft | 177 kts | 318° |
| 2026-05-05 05:08 | 37.40600 | -121.97241 | 1521 ft | 210 kts | 337° |
| 2026-05-05 05:08 | 37.42085 | -121.97309 | 1860 ft | 231 kts | 20° |
| 2026-05-05 05:09 | 37.43352 | -121.96037 | 2414 ft | 243 kts | 59° |
| 2026-05-05 05:09 | 37.43729 | -121.93979 | 3049 ft | 247 kts | 99° |
| 2026-05-05 05:09 | 37.43103 | -121.91984 | 3744 ft | 246 kts | 125° |
| 2026-05-05 05:09 | 37.42058 | -121.90291 | 4546 ft | 244 kts | 133° |
| 2026-05-05 05:10 | 37.40919 | -121.88718 | 5343 ft | 243 kts | 135° |
| 2026-05-05 05:10 | 37.39769 | -121.87141 | 6045 ft | 246 kts | 134° |
| 2026-05-05 05:10 | 37.38633 | -121.85516 | 6726 ft | 248 kts | 133° |
| 2026-05-05 05:10 | 37.37517 | -121.83846 | 7370 ft | 252 kts | 131° |
| 2026-05-05 05:11 | 37.36410 | -121.82125 | 8010 ft | 255 kts | 130° |
| 2026-05-05 05:11 | 37.35263 | -121.80400 | 8642 ft | 259 kts | 136° |
| 2026-05-05 05:11 | 37.33855 | -121.78971 | 9267 ft | 262 kts | 143° |
| 2026-05-05 05:11 | 37.32392 | -121.77580 | 9917 ft | 265 kts | 142° |
| 2026-05-05 05:12 | 37.30911 | -121.76168 | 10473 ft | 269 kts | 142° |
| 2026-05-05 05:12 | 37.29408 | -121.74736 | 11009 ft | 275 kts | 143° |
| 2026-05-05 05:12 | 37.27613 | -121.73680 | 11133 ft | 298 kts | 169° |
| 2026-05-05 05:12 | 37.25491 | -121.73758 | 11239 ft | 319 kts | 197° |
| 2026-05-05 05:13 | 37.23536 | -121.75192 | 11372 ft | 338 kts | 226° |
| 2026-05-05 05:13 | 37.22281 | -121.77734 | 11501 ft | 354 kts | 254° |
| 2026-05-05 05:13 | 37.22058 | -121.80805 | 11627 ft | 368 kts | 280° |
| 2026-05-05 05:13 | 37.22976 | -121.83811 | 11926 ft | 374 kts | 306° |
| 2026-05-05 05:14 | 37.24832 | -121.86087 | 12416 ft | 376 kts | 327° |
| 2026-05-05 05:14 | 37.27114 | -121.87699 | 12981 ft | 378 kts | 336° |
| 2026-05-05 05:14 | 37.29524 | -121.89043 | 13551 ft | 381 kts | 338° |
| 2026-05-05 05:14 | 37.31983 | -121.90430 | 14086 ft | 384 kts | 336° |
| 2026-05-05 05:15 | 37.34340 | -121.91930 | 14564 ft | 387 kts | 334° |
| 2026-05-05 05:15 | 37.36792 | -121.93354 | 15036 ft | 389 kts | 340° |
| 2026-05-05 05:15 | 37.39377 | -121.94372 | 15483 ft | 391 kts | 349° |
| 2026-05-05 05:15 | 37.43718 | -121.95018 | 16255 ft | 393 kts | 358° |
| 2026-05-05 05:16 | 37.49217 | -121.95504 | 17245 ft | 398 kts | 359° |
| 2026-05-05 05:16 | 37.54764 | -121.95970 | 18173 ft | 402 kts | 359° |
| 2026-05-05 05:16 | 37.60377 | -121.96459 | 19103 ft | 403 kts | 0° |
| 2026-05-05 05:16 | 37.65971 | -121.96945 | 19978 ft | 403 kts | 0° |
| 2026-05-05 05:17 | 37.71616 | -121.97414 | 20762 ft | 406 kts | 0° |
| 2026-05-05 05:17 | 37.77282 | -121.97903 | 21455 ft | 409 kts | 360° |
| 2026-05-05 05:17 | 37.82974 | -121.98406 | 22121 ft | 412 kts | 360° |
| 2026-05-05 05:17 | 37.88728 | -121.98905 | 22716 ft | 416 kts | 360° |
| 2026-05-05 05:18 | 37.94540 | -121.99401 | 23289 ft | 420 kts | 0° |
| 2026-05-05 05:18 | 38.00415 | -121.99897 | 23711 ft | 428 kts | 0° |
| 2026-05-05 05:18 | 38.06398 | -122.00411 | 24136 ft | 432 kts | 0° |
| 2026-05-05 05:18 | 38.12419 | -122.00936 | 24593 ft | 435 kts | 0° |
| 2026-05-05 05:19 | 38.18484 | -122.01467 | 25006 ft | 437 kts | 0° |
| 2026-05-05 05:19 | 38.24566 | -122.01997 | 25425 ft | 439 kts | 0° |
| 2026-05-05 05:19 | 38.30610 | -122.02525 | 25831 ft | 441 kts | 0° |
| 2026-05-05 05:19 | 38.36753 | -122.03137 | 26225 ft | 444 kts | 359° |
| 2026-05-05 05:20 | 38.42925 | -122.03883 | 26573 ft | 446 kts | 359° |
| 2026-05-05 05:20 | 38.49118 | -122.04637 | 26894 ft | 448 kts | 359° |
| 2026-05-05 05:20 | 38.55320 | -122.05364 | 27285 ft | 447 kts | 359° |
| 2026-05-05 05:20 | 38.61520 | -122.06078 | 27723 ft | 446 kts | 359° |
| 2026-05-05 05:21 | 38.67694 | -122.06791 | 28167 ft | 445 kts | 359° |
| 2026-05-05 05:21 | 38.73855 | -122.07509 | 28605 ft | 443 kts | 359° |
| 2026-05-05 05:21 | 38.79978 | -122.08220 | 29061 ft | 442 kts | 359° |
| 2026-05-05 05:21 | 38.86100 | -122.08936 | 29516 ft | 441 kts | 359° |
| 2026-05-05 05:22 | 38.92201 | -122.09650 | 29990 ft | 439 kts | 359° |
| 2026-05-05 05:22 | 38.98291 | -122.10359 | 30330 ft | 439 kts | 359° |
| 2026-05-05 05:22 | 39.04372 | -122.11071 | 30735 ft | 437 kts | 359° |
| 2026-05-05 05:22 | 39.10423 | -122.11784 | 31159 ft | 435 kts | 360° |
| 2026-05-05 05:23 | 39.16445 | -122.12493 | 31557 ft | 432 kts | 360° |
| 2026-05-05 05:23 | 39.22418 | -122.13196 | 31972 ft | 430 kts | 0° |
| 2026-05-05 05:23 | 39.28280 | -122.13884 | 32379 ft | 428 kts | 0° |
| 2026-05-05 05:23 | 39.34194 | -122.14585 | 32728 ft | 426 kts | 0° |
| 2026-05-05 05:24 | 39.40089 | -122.15284 | 33109 ft | 424 kts | 1° |
| 2026-05-05 05:24 | 39.45956 | -122.15981 | 33500 ft | 422 kts | 1° |
| 2026-05-05 05:24 | 39.51797 | -122.16677 | 33826 ft | 421 kts | 1° |
| 2026-05-05 05:24 | 39.57632 | -122.17365 | 34015 ft | 422 kts | 1° |
| 2026-05-05 05:25 | 39.63475 | -122.18048 | 34014 ft | 422 kts | 1° |
| 2026-05-05 05:25 | 39.75163 | -122.19455 | 34006 ft | 421 kts | 1° |
| 2026-05-05 05:26 | 39.86848 | -122.20868 | 33991 ft | 420 kts | 2° |
| 2026-05-05 05:26 | 39.98467 | -122.22256 | 34008 ft | 419 kts | 2° |
| 2026-05-05 05:27 | 40.09998 | -122.23643 | 34058 ft | 419 kts | 2° |
| 2026-05-05 05:27 | 40.27385 | -122.24619 | 34060 ft | 416 kts | 4° |
| 2026-05-05 05:28 | 40.38967 | -122.25308 | 34038 ft | 417 kts | 4° |
| 2026-05-05 05:28 | 40.50545 | -122.25986 | 34026 ft | 416 kts | 4° |
| 2026-05-05 05:29 | 40.62135 | -122.26650 | 34004 ft | 417 kts | 3° |
| 2026-05-05 05:29 | 40.73738 | -122.27339 | 34014 ft | 418 kts | 3° |
| 2026-05-05 05:30 | 40.85364 | -122.28016 | 33994 ft | 419 kts | 3° |
| 2026-05-05 05:30 | 40.97044 | -122.28718 | 34005 ft | 420 kts | 3° |
| 2026-05-05 05:31 | 41.08740 | -122.29399 | 33984 ft | 421 kts | 4° |
| 2026-05-05 05:31 | 41.20389 | -122.30094 | 33957 ft | 422 kts | 3° |
| 2026-05-05 05:32 | 41.32132 | -122.30778 | 33957 ft | 422 kts | 3° |
| 2026-05-05 05:32 | 41.43868 | -122.31486 | 33941 ft | 422 kts | 4° |
| 2026-05-05 05:33 | 41.55604 | -122.32179 | 33911 ft | 422 kts | 3° |
| 2026-05-05 05:33 | 41.67326 | -122.32900 | 33938 ft | 421 kts | 3° |
| 2026-05-05 05:34 | 41.79027 | -122.33604 | 33953 ft | 420 kts | 3° |
| 2026-05-05 05:34 | 41.90710 | -122.34317 | 33936 ft | 419 kts | 3° |
| 2026-05-05 05:35 | 42.04802 | -122.35168 | 33930 ft | 419 kts | 3° |
| 2026-05-05 05:35 | 42.28089 | -122.36578 | 33896 ft | 419 kts | 3° |
| 2026-05-05 05:36 | 42.51364 | -122.38020 | 33920 ft | 418 kts | 3° |
| 2026-05-05 05:36 | 42.74590 | -122.39467 | 33931 ft | 417 kts | 3° |
| 2026-05-05 05:37 | 42.97819 | -122.40908 | 33914 ft | 417 kts | 3° |
| 2026-05-05 05:37 | 43.21026 | -122.42384 | 33957 ft | 417 kts | 3° |
| 2026-05-05 05:38 | 43.44211 | -122.43850 | 33961 ft | 417 kts | 2° |
| 2026-05-05 05:38 | 43.67219 | -122.45310 | 33973 ft | 416 kts | 2° |
| 2026-05-05 05:39 | 43.90414 | -122.46828 | 33998 ft | 417 kts | 2° |
| 2026-05-05 05:39 | 44.13594 | -122.48319 | 33989 ft | 417 kts | 2° |
| 2026-05-05 05:40 | 44.36717 | -122.49842 | 33977 ft | 416 kts | 2° |
| 2026-05-05 05:40 | 44.59838 | -122.51376 | 33993 ft | 416 kts | 1° |
| 2026-05-05 05:41 | 44.82978 | -122.52912 | 33960 ft | 417 kts | 1° |
| 2026-05-05 05:41 | 45.06031 | -122.54459 | 33975 ft | 417 kts | 1° |
| 2026-05-05 05:42 | 45.29180 | -122.56046 | 34003 ft | 416 kts | 1° |
| 2026-05-05 05:42 | 45.52422 | -122.57613 | 33962 ft | 425 kts | 0° |
| 2026-05-05 05:43 | 45.76174 | -122.58973 | 33925 ft | 425 kts | 8° |
| 2026-05-05 05:43 | 45.99701 | -122.55107 | 34059 ft | 421 kts | 8° |
| 2026-05-05 05:44 | 46.23082 | -122.51268 | 33883 ft | 421 kts | 8° |
| 2026-05-05 05:44 | 46.30836 | -122.49990 | 34020 ft | 408 kts | 8° |
| 2026-05-05 05:44 | 46.34228 | -122.49427 | 33951 ft | 408 kts | 8° |
| 2026-05-05 05:45 | 46.56812 | -122.45678 | 33928 ft | 410 kts | 8° |
| 2026-05-05 05:45 | 46.79510 | -122.41879 | 33943 ft | 410 kts | 7° |
| 2026-05-05 05:46 | 47.02063 | -122.38052 | 34002 ft | 410 kts | 7° |
| 2026-05-05 05:46 | 47.24723 | -122.34189 | 33966 ft | 409 kts | 7° |
| 2026-05-05 05:47 | 47.47374 | -122.31463 | 33959 ft | 409 kts | 355° |
| 2026-05-05 05:47 | 47.58768 | -122.32996 | 32955 ft | 413 kts | 356° |
| 2026-05-05 05:47 | 47.70303 | -122.34488 | 31951 ft | 418 kts | 356° |
| 2026-05-05 05:48 | 47.81901 | -122.36042 | 31005 ft | 419 kts | 355° |
| 2026-05-05 05:48 | 47.93183 | -122.37556 | 29884 ft | 389 kts | 355° |
| 2026-05-05 05:48 | 48.03452 | -122.38947 | 28731 ft | 353 kts | 355° |
| 2026-05-05 05:48 | 48.12649 | -122.40202 | 27960 ft | 315 kts | 355° |
| 2026-05-05 05:49 | 48.21607 | -122.41395 | 26484 ft | 357 kts | 356° |
| 2026-05-05 05:49 | 48.32690 | -122.42882 | 24777 ft | 432 kts | 355° |
| 2026-05-05 05:49 | 48.44607 | -122.44525 | 22982 ft | 428 kts | 356° |
| 2026-05-05 05:49 | 48.56310 | -122.46576 | 21027 ft | 419 kts | 349° |
| 2026-05-05 05:50 | 48.63838 | -122.48862 | 19977 ft | 413 kts | 350° |
| 2026-05-05 05:50 | 48.74116 | -122.55546 | 18375 ft | 413 kts | 316° |
| 2026-05-05 05:50 | 48.81954 | -122.68052 | 16687 ft | 392 kts | 317° |
| 2026-05-05 05:50 | 48.89031 | -122.79207 | 15081 ft | 342 kts | 316° |
| 2026-05-05 05:51 | 48.95081 | -122.88883 | 13577 ft | 292 kts | 316° |
| 2026-05-05 05:51 | 49.00364 | -122.97312 | 11953 ft | 270 kts | 316° |
| 2026-05-05 05:51 | 49.05597 | -123.05856 | 10382 ft | 280 kts | 304° |
| 2026-05-05 05:51 | 49.08800 | -123.16786 | 8811 ft | 282 kts | 295° |
| 2026-05-05 05:52 | 49.10511 | -123.28404 | 6952 ft | 276 kts | 282° |
| 2026-05-05 05:52 | 49.11604 | -123.37614 | 5389 ft | 251 kts | 281° |
| 2026-05-05 05:52 | 49.11903 | -123.40211 | 4918 ft | 244 kts | 281° |
| 2026-05-05 05:52 | 49.12198 | -123.42735 | 4448 ft | 239 kts | 281° |
| 2026-05-05 05:53 | 49.12487 | -123.45188 | 3985 ft | 237 kts | 281° |
| 2026-05-05 05:53 | 49.12773 | -123.47719 | 3505 ft | 241 kts | 280° |
| 2026-05-05 05:53 | 49.13062 | -123.50216 | 3088 ft | 242 kts | 285° |
| 2026-05-05 05:53 | 49.13798 | -123.52451 | 2996 ft | 235 kts | 310° |
| 2026-05-05 05:54 | 49.15081 | -123.53978 | 3005 ft | 237 kts | 336° |
| 2026-05-05 05:54 | 49.16689 | -123.54476 | 3008 ft | 239 kts | 2° |
| 2026-05-05 05:54 | 49.18282 | -123.53804 | 3013 ft | 241 kts | 28° |
| 2026-05-05 05:54 | 49.19696 | -123.52429 | 3012 ft | 241 kts | 32° |
| 2026-05-05 05:55 | 49.21101 | -123.51033 | 3011 ft | 241 kts | 31° |
| 2026-05-05 05:55 | 49.22371 | -123.49369 | 3011 ft | 242 kts | 52° |
| 2026-05-05 05:55 | 49.23133 | -123.47084 | 3014 ft | 244 kts | 75° |
| 2026-05-05 05:55 | 49.23259 | -123.44501 | 2996 ft | 246 kts | 97° |
| 2026-05-05 05:56 | 49.22984 | -123.41918 | 2777 ft | 244 kts | 99° |
| 2026-05-05 05:56 | 49.22689 | -123.39371 | 2483 ft | 242 kts | 100° |
| 2026-05-05 05:56 | 49.22405 | -123.36856 | 2168 ft | 237 kts | 100° |
| 2026-05-05 05:56 | 49.22133 | -123.34425 | 1899 ft | 223 kts | 100° |
| 2026-05-05 05:57 | 49.21881 | -123.32170 | 1573 ft | 206 kts | 100° |
| 2026-05-05 05:57 | 49.21653 | -123.30145 | 1309 ft | 187 kts | 100° |
| 2026-05-05 05:57 | 49.21441 | -123.28257 | 1061 ft | 173 kts | 101° |
| 2026-05-05 05:57 | 49.21247 | -123.26531 | 874 ft | 157 kts | 100° |
| 2026-05-05 05:58 | 49.21067 | -123.24943 | 675 ft | 148 kts | 100° |
| 2026-05-05 05:58 | 49.20896 | -123.23413 | 480 ft | 145 kts | 100° |
| 2026-05-05 05:58 | 49.20730 | -123.21902 | 322 ft | 143 kts | 99° |
| 2026-05-05 05:58 | 49.20556 | -123.20406 | 113 ft | 142 kts | 101° |
| 2026-05-05 05:59 | 49.20388 | -123.18967 | 26 ft | 124 kts | 98° |
| 2026-05-05 05:59 | 49.20273 | -123.17938 | 27 ft | 73 kts | 100° |
| 2026-05-05 05:59 | 49.20212 | -123.17418 | 25 ft | 35 kts | 100° |
| 2026-05-05 05:59 | 49.20161 | -123.17069 | 28 ft | 33 kts | 114° |
| 2026-05-05 06:00 | 49.20046 | -123.16792 | 25 ft | 23 kts | 128° |
| 2026-05-05 06:00 | 49.19938 | -123.16629 | 27 ft | 18 kts | 185° |
| 2026-05-05 06:00 | 49.19923 | -123.16728 | 25 ft | 11 kts | 278° |
| 2026-05-05 06:00 | 49.19941 | -123.16914 | 25 ft | 21 kts | 276° |
| 2026-05-05 06:01 | 49.19938 | -123.17122 | 25 ft | 16 kts | 222° |
| 2026-05-05 06:01 | 49.19846 | -123.17142 | 27 ft | 13 kts | 195° |
| 2026-05-05 06:01 | 49.19759 | -123.17178 | 25 ft | 13 kts | 195° |
| 2026-05-05 06:01 | 49.19674 | -123.17210 | 27 ft | 12 kts | 210° |
| 2026-05-05 06:02 | 49.19651 | -123.17313 | 25 ft | 10 kts | 280° |
| 2026-05-05 06:02 | 49.19667 | -123.17371 | 26 ft | 4 kts | 5° |
| 2026-05-05 06:02 | 49.19682 | -123.17371 | 25 ft | 1 kts | 356° |
| 2026-05-05 06:02 | 49.19694 | -123.17372 | 26 ft | 4 kts | 357° |
| 2026-05-05 06:03 | 49.19709 | -123.17373 | 25 ft | 0 kts | 358° |